Arnold, Kansas
Current Conditions -  °F | °C
As of 12:15 PM on Tuesday 21 Oct 2014 (Local Time) from KHYS Reporting Station
Clear Clear  
Wind Chill: 70°   Ceiling: Unl
Heat Index: 70°   Visibility: 10mi
Dew Point: 57°   Wind: 16mph
Humidity: 64%   Direction: 140°SE
Pressure: 30.07"   Gusts: 22mph
Location:  38.64°N, 100.05°W
Report Text: KHYS 211715Z AUTO 14014G19KT 10SM CLR 21/14 A3007 RMK AO1
Loading
Personal Weather Stations






























Interactive Weather Map
Tropical Storm Tracking
New forecast layout! Learn more

10-Day Weather Forecast

Advertisements
Track Severe Weather on mobile